Overview Statistics Trail Chart Weather Telemetry Raw packets
 

This is the latest recevied weather packets stored in our database for station/object HA2SKA-1. If no packets are shown the sender has not sent any weather packets the latest 10 day(s).

<< 23 24 25 26 27 28 29 >>
Time Temp. Humidity Pressure Rain* Wind** Luminosity Snow
1788107704 32.22° C 45% 1017.1 hPa - - - -
1788106804 32.22° C 44% 1017.1 hPa - - - -
1788105904 32.78° C 45% 1017.3 hPa - - - -
1788105004 32.22° C 46% 1017.3 hPa - - - -
1788104103 33.33° C 44% 1017.4 hPa - - - -
1788103202 33.33° C 44% 1017.4 hPa - - - -
1788102302 33.33° C 44% 1017.4 hPa - - - -
1788101402 33.33° C 43% 1017.5 hPa - - - -
1788099611 33.89° C 43% 1017.8 hPa - - - -
1788098711 33.89° C 43% 1017.8 hPa - - - -
1788097811 33.89° C 43% 1017.8 hPa - - - -
1788096911 33.89° C 43% 1017.9 hPa - - - -
1788096011 33.89° C 43% 1018 hPa - - - -
1788095111 33.33° C 45% 1018 hPa - - - -
1788094211 33.33° C 44% 1018.3 hPa - - - -
1788093311 32.78° C 43% 1018.5 hPa - - - -
1788092411 33.33° C 44% 1018.6 hPa - - - -
1788091511 33.89° C 44% 1018.6 hPa - - - -
1788090611 35° C 43% 1018.7 hPa - - - -
1788089710 31.67° C 47% 1018.7 hPa - - - -
1788088810 33.89° C 44% 1018.9 hPa - - - -
1788087915 33.33° C 44% 1019 hPa - - - -
1788087010 32.22° C 45% 1019.2 hPa - - - -
1788086110 32.78° C 44% 1019.2 hPa - - - -
1788085210 33.33° C 43% 1019.3 hPa - - - -

* Rain since midnight (hover to see other rain measurements)
** Current wind speed in m/s (hover to see current wind gust speed)